Time;durP1;ratioP1;P1;durP2;ratioP2;P2;SDS_P1;SDS_P2;PMS_P1;PMS_P2;Temp;Humidity;BMP_temperature;BMP_pressure;BME280_temperature;BME280_humidity;BME280_pressure;Samples;Min_cycle;Max_cycle;Signal;HPM_P1;HPM_P2
2023/01/12 00:00:49;;;;;;;1.20;1.10;;;;;;;2.97;100.00;100375.06;5932869;24;20024;-89
2023/01/12 00:03:15;;;;;;;2.05;1.95;;;;;;;2.95;100.00;100383.69;5932823;24;20008;-91
2023/01/12 00:05:40;;;;;;;0.63;0.63;;;;;;;2.77;100.00;100364.34;5932306;24;20094;-91
2023/01/12 00:08:06;;;;;;;1.45;0.90;;;;;;;2.95;100.00;100382.91;5956000;24;20012;-89
2023/01/12 00:10:31;;;;;;;0.93;0.80;;;;;;;3.00;100.00;100396.22;5956129;24;20077;-89
2023/01/12 00:12:57;;;;;;;0.65;0.60;;;;;;;2.87;100.00;100378.50;5938717;23;20011;-91
2023/01/12 00:18:07;;;;;;;3.50;1.83;;;;;;;2.96;100.00;100395.41;5987595;23;20107;-90
2023/01/12 00:20:32;;;;;;;1.00;1.00;;;;;;;2.90;100.00;100385.97;5959363;23;20030;-90
2023/01/12 00:22:58;;;;;;;0.82;0.82;;;;;;;2.94;100.00;100392.28;5983147;23;20023;-91
2023/01/12 00:25:23;;;;;;;0.35;0.35;;;;;;;2.89;100.00;100384.38;5983038;23;20039;-90
2023/01/12 00:27:49;;;;;;;1.98;1.88;;;;;;;2.97;100.00;100400.53;5982077;23;20341;-90
2023/01/12 00:30:14;;;;;;;2.58;1.90;;;;;;;2.96;100.00;100396.19;6005175;23;20043;-90
2023/01/12 00:32:40;;;;;;;2.17;2.05;;;;;;;2.99;100.00;100397.41;6006088;23;20472;-90
2023/01/12 00:35:05;;;;;;;0.55;0.55;;;;;;;2.94;100.00;100403.25;5982125;23;20345;-91
2023/01/12 00:37:33;;;;;;;10.13;3.22;;;;;;;2.91;100.00;100398.53;5961031;23;20406;-91
2023/01/12 00:39:58;;;;;;;0.47;0.47;;;;;;;2.66;100.00;100371.66;5959980;23;20012;-90
2023/01/12 00:45:20;;;;;;;0.10;0.10;;;;;;;2.76;100.00;100390.13;6006957;23;20119;-91
2023/01/12 00:47:46;;;;;;;0.82;0.80;;;;;;;2.77;100.00;100394.47;5986088;23;20019;-91
2023/01/12 00:50:13;;;;;;;1.52;1.42;;;;;;;2.80;100.00;100393.69;5960158;23;20020;-92
2023/01/12 00:52:38;;;;;;;0.85;0.82;;;;;;;2.76;100.00;100398.34;5983636;23;20051;-91
2023/01/12 00:55:04;;;;;;;1.50;1.40;;;;;;;2.68;100.00;100393.97;5983733;23;20428;-91
2023/01/12 00:57:29;;;;;;;1.55;1.17;;;;;;;2.71;100.00;100414.38;6006436;23;20477;-91
2023/01/12 00:59:57;;;;;;;1.92;1.67;;;;;;;2.66;100.00;100410.00;5983075;23;20015;-91
2023/01/12 01:07:36;;;;;;;;;;;;;;;2.73;100.00;100426.50;6091049;23;20030;-91
2023/01/12 01:10:02;;;;;;;1.35;1.25;;;;;;;2.75;100.00;100424.16;6041835;23;19914;-92
2023/01/12 01:12:28;;;;;;;1.52;1.10;;;;;;;2.75;100.00;100432.38;6043475;23;20384;-91
2023/01/12 01:14:53;;;;;;;0.03;0.03;;;;;;;2.69;100.00;100409.25;6042654;23;20025;-90
2023/01/12 01:17:19;;;;;;;0.68;0.68;;;;;;;2.80;100.00;100425.78;6020170;23;20018;-91
2023/01/12 01:19:47;;;;;;;2.10;2.00;;;;;;;2.75;100.00;100412.44;6020381;23;20006;-90
2023/01/12 01:22:13;;;;;;;2.75;1.88;;;;;;;2.80;100.00;100414.81;6044063;23;20447;-91
2023/01/12 01:24:39;;;;;;;1.42;1.33;;;;;;;2.89;100.00;100417.28;6043089;23;20022;-91
2023/01/12 01:27:05;;;;;;;0.70;0.70;;;;;;;2.77;100.00;100393.66;6044590;23;20085;-91
2023/01/12 01:29:30;;;;;;;1.60;1.50;;;;;;;2.94;100.00;100423.22;6045111;23;20442;-90
2023/01/12 01:31:56;;;;;;;3.17;2.20;;;;;;;2.96;100.00;100417.34;6068268;23;20071;-91
2023/01/12 01:34:24;;;;;;;1.17;1.08;;;;;;;2.91;100.00;100406.75;6042156;23;20070;-91
2023/01/12 01:36:50;;;;;;;0.45;0.45;;;;;;;2.93;100.00;100407.94;6043601;23;20018;-92
2023/01/12 01:39:15;;;;;;;1.10;1.02;;;;;;;3.00;100.00;100407.19;6043276;23;20006;-91
2023/01/12 01:41:41;;;;;;;0.30;0.30;;;;;;;2.95;100.00;100400.13;6044499;23;20018;-91
2023/01/12 01:44:28;;;;;;;3.53;3.22;;;;;;;3.03;100.00;100400.97;6043604;23;20101;-90
2023/01/12 01:47:02;;;;;;;0.73;0.73;;;;;;;2.99;100.00;100392.72;6067995;23;20459;-91
2023/01/12 01:49:36;;;;;;;3.92;1.42;;;;;;;2.94;100.00;100373.09;6068519;23;20026;-90
2023/01/12 01:52:10;;;;;;;2.50;1.13;;;;;;;2.86;100.00;100380.47;6095905;23;20010;-91
2023/01/12 01:54:40;;;;;;;0.98;0.98;;;;;;;2.83;100.00;100392.94;6045585;23;20028;-91
2023/01/12 01:57:07;;;;;;;1.48;1.38;;;;;;;2.90;100.00;100399.69;6045637;23;20367;-92
2023/01/12 01:59:34;;;;;;;1.38;1.25;;;;;;;2.90;100.00;100396.94;6045861;23;20222;-91
2023/01/12 02:04:29;;;;;;;1.30;1.13;;;;;;;2.93;100.00;100380.53;6081198;23;20038;-95
2023/01/12 02:06:55;;;;;;;2.65;2.45;;;;;;;2.92;100.00;100362.50;6022000;23;20029;-94
2023/01/12 02:09:24;;;;;;;0.85;0.85;;;;;;;2.89;100.00;100378.91;6023352;23;20019;-92
2023/01/12 02:17:28;;;;;;;0.77;0.77;;;;;;;2.89;100.00;100389.88;6071535;23;20053;-92
2023/01/12 02:20:15;;;;;;;2.17;1.83;;;;;;;2.91;100.00;100393.03;6023980;23;20014;-93
2023/01/12 02:23:03;;;;;;;1.92;1.52;;;;;;;2.90;100.00;100385.97;6071513;23;20022;-93
2023/01/12 02:25:52;;;;;;;0.35;0.35;;;;;;;2.80;100.00;100377.25;6047529;23;20018;-94
2023/01/12 02:29:00;;;;;;;0.60;0.60;;;;;;;2.77;100.00;100380.75;6047189;23;20018;-93
2023/01/12 02:31:29;;;;;;;0.93;0.93;;;;;;;2.86;100.00;100396.09;6023654;23;20393;-93
2023/01/12 02:33:55;;;;;;;6.53;1.23;;;;;;;2.83;100.00;100400.41;6023672;23;20018;-93
2023/01/12 02:36:58;;;;;;;1.85;1.75;;;;;;;2.75;100.00;100388.56;6047010;23;20042;-92
2023/01/12 02:39:44;;;;;;;6.57;2.00;;;;;;;2.68;100.00;100379.47;6046932;23;20457;-93
2023/01/12 02:42:41;;;;;;;2.88;2.67;;;;;;;2.56;100.00;100371.53;6023473;23;20401;-92
2023/01/12 02:45:48;;;;;;;3.15;1.90;;;;;;;2.57;100.00;100379.38;6012697;23;20101;-92
2023/01/12 02:48:30;;;;;;;0.55;0.55;;;;;;;2.53;100.00;100384.03;5984612;23;20271;-92
2023/01/12 02:51:02;;;;;;;0.60;0.60;;;;;;;2.52;100.00;100398.88;5960987;23;20023;-92
2023/01/12 02:53:48;;;;;;;0.82;0.82;;;;;;;2.51;100.00;100400.03;6039721;23;20046;-94
2023/01/12 02:56:19;;;;;;;0.60;0.60;;;;;;;2.38;100.00;100386.97;6024275;23;20018;-92
2023/01/12 02:58:50;;;;;;;2.67;1.50;;;;;;;2.40;100.00;100388.16;6023022;23;20449;-90
2023/01/12 03:01:16;;;;;;;2.83;2.40;;;;;;;2.35;100.00;100399.44;6023282;23;20411;-92
2023/01/12 03:03:42;;;;;;;4.10;1.42;;;;;;;2.18;100.00;100384.41;6023732;23;20017;-92
2023/01/12 03:06:08;;;;;;;1.38;1.23;;;;;;;2.22;100.00;100404.41;6024034;23;20019;-93
2023/01/12 03:08:38;;;;;;;0.57;0.57;;;;;;;2.14;100.00;100389.03;6023086;23;20022;-92
2023/01/12 03:11:14;;;;;;;6.55;3.85;;;;;;;2.16;100.00;100383.97;6023571;23;20742;-94
2023/01/12 03:13:47;;;;;;;0.82;0.82;;;;;;;2.25;100.00;100400.91;6024174;23;20019;-94
2023/01/12 03:16:17;;;;;;;3.17;2.45;;;;;;;2.22;100.00;100398.13;6023716;23;20019;-90
2023/01/12 03:18:49;;;;;;;1.10;1.10;;;;;;;2.25;100.00;100391.91;6021498;23;20018;-89
2023/01/12 03:21:25;;;;;;;0.32;0.30;;;;;;;2.27;100.00;100395.03;6018861;23;20025;-90
2023/01/12 03:24:01;;;;;;;0.77;0.77;;;;;;;2.26;100.00;100393.50;6021049;23;20428;-91
2023/01/12 03:26:28;;;;;;;0.90;0.90;;;;;;;2.22;100.00;100382.50;6042142;23;20017;-89
2023/01/12 03:29:01;;;;;;;7.70;2.53;;;;;;;2.25;100.00;100386.44;6019777;23;20007;-90
2023/01/12 03:31:27;;;;;;;1.05;1.02;;;;;;;2.14;100.00;100396.47;6022210;23;20026;-90
2023/01/12 03:33:53;;;;;;;7.22;3.15;;;;;;;2.28;100.00;100407.56;6045272;23;20011;-90
2023/01/12 03:36:28;;;;;;;0.65;0.65;;;;;;;2.30;100.00;100414.28;6021185;23;20018;-89
2023/01/12 03:39:20;;;;;;;1.27;1.17;;;;;;;2.26;100.00;100418.13;6023464;23;20125;-95
2023/01/12 03:42:06;;;;;;;1.95;1.45;;;;;;;2.32;100.00;100416.63;6020426;23;20014;-94
2023/01/12 03:44:45;;;;;;;0.30;0.30;;;;;;;2.32;100.00;100427.56;6024020;23;20022;-92
2023/01/12 03:47:16;;;;;;;1.45;1.27;;;;;;;2.38;100.00;100449.94;6048010;23;20042;-94
2023/01/12 03:49:46;;;;;;;2.83;1.27;;;;;;;2.37;100.00;100446.41;6024261;23;20011;-94
2023/01/12 03:52:12;;;;;;;0.20;0.20;;;;;;;2.42;100.00;100465.25;6047318;23;20023;-93
2023/01/12 03:54:38;;;;;;;3.63;1.20;;;;;;;2.25;100.00;100438.44;6024017;23;20033;-93
2023/01/12 03:57:06;;;;;;;1.35;0.75;;;;;;;2.36;100.00;100466.72;6023480;23;20010;-95
2023/01/12 03:59:31;;;;;;;1.70;1.60;;;;;;;2.39;100.00;100471.47;6024160;23;20085;-93
2023/01/12 04:01:57;;;;;;;1.08;0.85;;;;;;;2.33;100.00;100456.53;6047751;23;20041;-93
2023/01/12 04:04:23;;;;;;;1.48;1.38;;;;;;;2.45;100.00;100480.94;6047390;23;20029;-93
2023/01/12 04:06:48;;;;;;;1.33;1.25;;;;;;;2.46;100.00;100488.00;6047669;23;20107;-94
2023/01/12 04:09:14;;;;;;;2.60;1.85;;;;;;;2.35;100.00;100465.16;6023050;23;20017;-95
2023/01/12 04:14:24;;;;;;;0.50;0.50;;;;;;;2.51;100.00;100489.63;6051278;23;20014;-94
2023/01/12 04:16:49;;;;;;;1.23;0.90;;;;;;;2.32;100.00;100454.94;6045981;23;20141;-90
2023/01/12 04:19:15;;;;;;;0.47;0.47;;;;;;;2.54;100.00;100484.19;6043257;23;20065;-90
2023/01/12 04:24:25;;;;;;;1.55;1.45;;;;;;;2.47;100.00;100469.63;6068240;23;20021;-90
2023/01/12 04:26:50;;;;;;;1.10;1.10;;;;;;;2.50;100.00;100472.41;6068618;23;20018;-90
2023/01/12 04:29:16;;;;;;;1.00;0.47;;;;;;;2.33;100.00;100451.84;6044262;23;20012;-91
2023/01/12 04:31:45;;;;;;;2.03;1.92;;;;;;;2.32;100.00;100449.47;6044512;23;20042;-91
2023/01/12 04:34:10;;;;;;;7.80;0.95;;;;;;;2.39;100.00;100471.47;6021348;23;20033;-91
2023/01/12 04:36:36;;;;;;;0.57;0.57;;;;;;;2.21;100.00;100448.56;6044592;23;20329;-90
2023/01/12 04:39:02;;;;;;;0.30;0.30;;;;;;;2.29;100.00;100466.66;6044222;23;20014;-90
2023/01/12 04:41:28;;;;;;;0.20;0.20;;;;;;;2.18;100.00;100454.78;6045088;23;20018;-92
2023/01/12 04:43:54;;;;;;;0.70;0.70;;;;;;;2.27;100.00;100466.22;6044805;23;20014;-92
2023/01/12 04:46:19;;;;;;;1.25;1.15;;;;;;;2.19;100.00;100468.06;6044746;23;20018;-91
2023/01/12 04:48:45;;;;;;;2.60;1.17;;;;;;;2.26;100.00;100478.34;6044205;23;20013;-91
2023/01/12 04:51:11;;;;;;;1.95;1.73;;;;;;;2.14;100.00;100445.72;6043069;23;20497;-94
2023/01/12 04:53:37;;;;;;;0.45;0.45;;;;;;;2.32;100.00;100469.44;6022460;23;20041;-95
2023/01/12 04:56:05;;;;;;;0.63;0.63;;;;;;;2.29;100.00;100470.19;6045806;23;20041;-94
2023/01/12 04:58:31;;;;;;;1.02;0.93;;;;;;;2.18;100.00;100460.25;6022291;23;20464;-93
2023/01/12 05:00:57;;;;;;;0.57;0.57;;;;;;;2.24;100.00;100466.97;6045701;23;20018;-94
2023/01/12 05:03:22;;;;;;;2.17;1.13;;;;;;;2.17;100.00;100459.44;6045485;23;20093;-93
2023/01/12 05:05:48;;;;;;;1.88;1.77;;;;;;;2.30;100.00;100469.03;6044594;23;20022;-93
2023/01/12 05:11:00;;;;;;;0.52;0.52;;;;;;;2.24;100.00;100483.38;6029446;23;20018;-94
2023/01/12 05:13:30;;;;;;;2.28;1.98;;;;;;;2.20;100.00;100468.84;6021672;23;20063;-91
2023/01/12 05:16:15;;;;;;;0.65;0.65;;;;;;;2.27;100.00;100471.69;6020583;23;20018;-91
2023/01/12 05:18:42;;;;;;;1.27;1.17;;;;;;;2.16;100.00;100455.13;6044444;23;20041;-93
2023/01/12 05:21:08;;;;;;;0.47;0.47;;;;;;;2.19;100.00;100467.28;6067551;23;20010;-91
2023/01/12 05:23:33;;;;;;;1.77;1.67;;;;;;;2.25;100.00;100474.03;6023969;23;20017;-92
2023/01/12 05:26:00;;;;;;;1.70;0.95;;;;;;;2.29;100.00;100478.38;6048017;23;20026;-90
2023/01/12 05:28:27;;;;;;;0.73;0.38;;;;;;;2.26;100.00;100478.34;6047653;23;20137;-92
2023/01/12 05:30:53;;;;;;;0.45;0.45;;;;;;;2.36;100.00;100483.16;6023378;23;20360;-92
2023/01/12 05:33:19;;;;;;;1.50;1.40;;;;;;;2.30;100.00;100473.72;6072021;23;20018;-95
2023/01/12 05:35:45;;;;;;;1.55;1.05;;;;;;;2.30;100.00;100476.44;6026643;23;20014;-94
2023/01/12 05:38:11;;;;;;;0.20;0.20;;;;;;;2.34;100.00;100485.50;6025563;23;20017;-92
2023/01/12 05:40:36;;;;;;;1.73;1.63;;;;;;;2.33;100.00;100472.97;6050074;23;20152;-93
2023/01/12 05:45:47;;;;;;;0.95;0.88;;;;;;;2.41;100.00;100485.56;6051282;23;20046;-93
2023/01/12 05:48:12;;;;;;;0.22;0.22;;;;;;;2.39;100.00;100481.66;6044992;23;20422;-95
2023/01/12 05:50:38;;;;;;;1.35;1.25;;;;;;;2.35;100.00;100470.63;6044721;23;20067;-93
2023/01/12 05:53:08;;;;;;;1.23;1.13;;;;;;;2.18;100.00;100461.03;6071391;23;20002;-95
2023/01/12 05:55:36;;;;;;;3.95;2.15;;;;;;;2.32;100.00;100490.53;6020732;23;20006;-94
2023/01/12 05:58:01;;;;;;;1.80;0.98;;;;;;;2.22;100.00;100472.03;6021575;23;20018;-94
2023/01/12 06:00:27;;;;;;;1.98;1.73;;;;;;;2.28;100.00;100476.81;6019251;23;20054;-94
2023/01/12 06:02:52;;;;;;;1.38;1.27;;;;;;;2.20;100.00;100461.44;6043918;23;20029;-95
2023/01/12 06:05:18;;;;;;;1.13;1.02;;;;;;;2.40;100.00;100489.47;6043353;23;20437;-96
2023/01/12 06:07:44;;;;;;;2.03;1.63;;;;;;;2.24;100.00;100464.22;6044677;23;20121;-93
2023/01/12 06:10:10;;;;;;;1.58;1.48;;;;;;;2.48;100.00;100501.31;6023008;23;20017;-93
2023/01/12 06:15:23;;;;;;;2.50;2.30;;;;;;;2.34;100.00;100480.81;6070457;23;20014;-92
2023/01/12 06:17:48;;;;;;;0.63;0.63;;;;;;;2.28;100.00;100467.78;6071682;23;20037;-94
2023/01/12 06:20:16;;;;;;;2.70;1.63;;;;;;;2.29;100.00;100466.66;6046384;23;20430;-92
2023/01/12 06:22:44;;;;;;;1.17;1.17;;;;;;;2.36;100.00;100480.41;6071240;23;20014;-93
2023/01/12 06:25:10;;;;;;;0.77;0.77;;;;;;;2.44;100.00;100495.78;6070015;23;20014;-91
2023/01/12 06:27:37;;;;;;;4.30;3.20;;;;;;;2.44;100.00;100501.25;6070449;23;20025;-93
2023/01/12 06:30:05;;;;;;;1.45;1.35;;;;;;;2.45;100.00;100502.06;6095039;23;20038;-92
2023/01/12 06:32:31;;;;;;;1.55;1.45;;;;;;;2.32;100.00;100488.59;6073232;23;20011;-92
2023/01/12 06:34:57;;;;;;;2.50;2.30;;;;;;;2.38;100.00;100493.75;6022206;23;20002;-93
2023/01/12 06:37:26;;;;;;;2.60;2.40;;;;;;;2.25;100.00;100482.22;6067657;23;20022;-94
2023/01/12 06:39:52;;;;;;;4.68;1.33;;;;;;;2.33;100.00;100505.81;6046288;23;20029;-94
2023/01/12 06:42:30;;;;;;;7.63;4.45;;;;;;;2.25;100.00;100490.44;6021409;23;20559;-93
2023/01/12 06:44:57;;;;;;;2.47;1.70;;;;;;;2.42;100.00;100530.97;6099010;23;20385;-92
2023/01/12 06:49:57;;;;;;;1.25;1.23;;;;;;;2.29;100.00;100533.13;5956790;24;20024;-93
2023/01/12 06:52:24;;;;;;;0.80;0.80;;;;;;;2.31;100.00;100530.00;5933297;24;20352;-91
2023/01/12 06:54:51;;;;;;;0.82;0.82;;;;;;;2.12;100.00;100510.97;5934219;24;20481;-91
2023/01/12 06:57:16;;;;;;;0.50;0.50;;;;;;;2.24;100.00;100530.72;5933990;24;20484;-93
2023/01/12 06:59:42;;;;;;;4.50;2.00;;;;;;;2.18;100.00;100520.47;5933970;24;20047;-93
2023/01/12 07:02:13;;;;;;;1.65;1.55;;;;;;;2.23;100.00;100537.34;5922127;23;20095;-93
2023/01/12 07:04:39;;;;;;;0.52;0.52;;;;;;;2.14;100.00;100522.34;5937085;23;20076;-91
2023/01/12 07:07:06;;;;;;;2.80;2.17;;;;;;;2.22;100.00;100535.78;5959525;23;20011;-94
2023/01/12 07:09:31;;;;;;;2.10;1.55;;;;;;;2.18;100.00;100526.72;5985229;23;20012;-91
2023/01/12 07:11:57;;;;;;;1.83;1.55;;;;;;;2.14;100.00;100558.72;5945283;23;20018;-91
2023/01/12 07:14:23;;;;;;;1.35;1.17;;;;;;;2.08;100.00;100542.97;5966367;23;20023;-90
2023/01/12 07:16:49;;;;;;;1.67;1.58;;;;;;;2.13;100.00;100567.28;5944628;23;20505;-90
2023/01/12 07:19:14;;;;;;;1.77;1.67;;;;;;;2.15;100.00;100564.97;5964589;23;20015;-92
2023/01/12 07:21:40;;;;;;;2.95;2.70;;;;;;;2.12;100.00;100554.75;5971258;23;20007;-90
2023/01/12 07:24:06;;;;;;;1.00;0.95;;;;;;;2.00;100.00;100524.84;5973122;23;20012;-90
2023/01/12 07:26:31;;;;;;;6.35;2.15;;;;;;;2.17;100.00;100574.41;6001030;23;20060;-91
2023/01/12 07:28:57;;;;;;;4.82;3.90;;;;;;;2.20;100.00;100570.13;5978509;23;20044;-90
2023/01/12 07:31:22;;;;;;;1.45;1.38;;;;;;;2.20;100.00;100570.91;5976673;23;20508;-91
2023/01/12 07:33:52;;;;;;;1.63;1.55;;;;;;;2.18;100.00;100575.19;5994857;23;20015;-91
2023/01/12 07:36:25;;;;;;;2.08;1.98;;;;;;;2.26;100.00;100583.16;5960025;23;20015;-91
2023/01/12 07:38:51;;;;;;;2.80;2.38;;;;;;;2.21;100.00;100560.75;5960228;23;20028;-92
2023/01/12 07:44:07;;;;;;;1.23;1.13;;;;;;;2.27;100.00;100556.53;5989847;23;20016;-94
2023/01/12 07:46:33;;;;;;;1.83;1.73;;;;;;;2.49;100.00;100579.56;5960884;23;20087;-93
2023/01/12 07:48:59;;;;;;;1.52;1.42;;;;;;;2.52;100.00;100576.88;5960524;23;20015;-92
2023/01/12 07:51:25;;;;;;;1.95;1.85;;;;;;;2.50;100.00;100571.00;5937669;23;20030;-92
2023/01/12 07:53:50;;;;;;;2.13;1.95;;;;;;;2.65;100.00;100577.44;5938129;23;20017;-92
2023/01/12 07:56:17;;;;;;;1.13;1.02;;;;;;;2.60;100.00;100570.34;5938522;23;20584;-91
2023/01/12 07:58:43;;;;;;;2.42;2.22;;;;;;;2.72;100.00;100570.09;5938476;23;20020;-92
2023/01/12 08:01:08;;;;;;;2.50;2.05;;;;;;;2.73;100.00;100573.63;5961095;23;20355;-93
2023/01/12 08:03:34;;;;;;;1.20;1.20;;;;;;;2.67;100.00;100570.41;5961063;23;20068;-91
2023/01/12 08:05:59;;;;;;;2.60;2.40;;;;;;;2.74;100.00;100569.75;5984399;23;20214;-92
2023/01/12 08:08:25;;;;;;;2.30;2.17;;;;;;;2.85;100.00;100573.41;5984137;23;20398;-92
2023/01/12 08:10:51;;;;;;;0.80;0.80;;;;;;;2.76;100.00;100565.47;5984806;23;20007;-91
2023/01/12 08:13:21;;;;;;;1.77;1.63;;;;;;;2.78;100.00;100554.94;5960706;23;20067;-91
2023/01/12 08:15:48;;;;;;;3.78;3.03;;;;;;;3.11;100.00;100584.31;5939206;23;20015;-91
2023/01/12 08:18:36;;;;;;;5.30;3.58;;;;;;;3.25;100.00;100583.69;5984250;23;20010;-91
2023/01/12 08:21:06;;;;;;;4.00;3.63;;;;;;;3.39;100.00;100594.81;5983864;23;20063;-93
2023/01/12 08:23:36;;;;;;;5.32;3.75;;;;;;;3.47;100.00;100585.50;5938200;23;20015;-93
2023/01/12 08:26:05;;;;;;;2.95;1.95;;;;;;;3.52;100.00;100587.88;5938621;23;20090;-92
2023/01/12 08:28:34;;;;;;;3.70;2.28;;;;;;;3.55;100.00;100591.84;5983917;23;20031;-92
2023/01/12 08:31:00;;;;;;;1.10;1.05;;;;;;;3.54;100.00;100584.78;5937039;23;20023;-92
2023/01/12 08:33:26;;;;;;;2.53;2.08;;;;;;;3.55;100.00;100589.91;5937845;23;20016;-93
2023/01/12 08:35:51;;;;;;;2.33;1.45;;;;;;;3.56;100.00;100582.47;5960675;23;20516;-93
2023/01/12 08:38:18;;;;;;;3.88;2.70;;;;;;;3.65;100.00;100600.19;5960902;23;20098;-93
2023/01/12 08:46:13;;;;;;;1.88;1.77;;;;;;;3.78;100.00;100594.44;5963807;23;20360;-93
2023/01/12 08:48:38;;;;;;;0.60;0.60;;;;;;;3.78;100.00;100595.22;5960474;23;20027;-94
2023/01/12 08:51:06;;;;;;;1.63;1.52;;;;;;;3.84;100.00;100598.41;5960750;23;20052;-91
2023/01/12 08:53:32;;;;;;;1.17;1.08;;;;;;;3.89;100.00;100595.31;5938152;23;20448;-93
2023/01/12 08:55:58;;;;;;;0.90;0.90;;;;;;;3.71;100.00;100573.22;5961049;23;20023;-92
2023/01/12 08:58:23;;;;;;;1.70;1.60;;;;;;;3.78;100.00;100581.50;5936836;23;20087;-91
2023/01/12 09:00:49;;;;;;;1.38;1.35;;;;;;;3.90;100.00;100588.66;5937942;23;20015;-93
2023/01/12 09:03:15;;;;;;;0.43;0.43;;;;;;;3.86;100.00;100583.13;5937770;23;20023;-92
2023/01/12 09:05:40;;;;;;;3.80;2.80;;;;;;;4.01;100.00;100598.56;5936967;23;20019;-92
2023/01/12 09:08:06;;;;;;;2.08;1.73;;;;;;;4.09;100.00;100604.91;5960959;23;20015;-92
2023/01/12 09:10:32;;;;;;;1.00;1.00;;;;;;;4.11;100.00;100619.03;5960855;23;20038;-92
2023/01/12 09:12:57;;;;;;;2.83;2.63;;;;;;;3.95;100.00;100599.28;5960551;23;20019;-93
2023/01/12 09:15:23;;;;;;;1.10;0.75;;;;;;;3.98;100.00;100593.03;5937326;23;20020;-93
2023/01/12 09:17:52;;;;;;;1.92;1.77;;;;;;;4.10;100.00;100610.03;5961286;23;20024;-93
2023/01/12 09:20:18;;;;;;;1.00;0.82;;;;;;;4.09;100.00;100610.38;5967322;23;20108;-91
2023/01/12 09:22:44;;;;;;;1.15;1.08;;;;;;;4.11;100.00;100613.56;5949013;23;20016;-92
2023/01/12 09:25:09;;;;;;;0.93;0.93;;;;;;;4.08;100.00;100612.38;5986288;23;20454;-92
2023/01/12 09:27:35;;;;;;;2.30;0.88;;;;;;;4.09;100.00;100610.38;5984427;23;20425;-92
2023/01/12 09:30:00;;;;;;;1.33;1.30;;;;;;;4.16;100.00;100621.44;5984253;23;20020;-92
2023/01/12 09:32:26;;;;;;;1.45;1.35;;;;;;;4.17;100.00;100614.78;5960282;23;20348;-92
2023/01/12 09:34:53;;;;;;;2.53;2.38;;;;;;;4.08;100.00;100603.34;5983657;23;20071;-92
2023/01/12 09:37:18;;;;;;;1.60;1.50;;;;;;;4.14;100.00;100613.59;5937294;23;20027;-92
2023/01/12 09:39:44;;;;;;;1.45;1.35;;;;;;;3.93;100.00;100579.66;5937394;23;20012;-93
2023/01/12 09:47:48;;;;;;;2.85;0.82;;;;;;;4.31;100.00;100606.66;5970571;23;20007;-92
2023/01/12 09:50:22;;;;;;;3.03;2.83;;;;;;;4.36;100.00;100603.56;5972614;23;20027;-93
2023/01/12 09:52:56;;;;;;;5.78;2.60;;;;;;;4.44;100.00;100610.69;5960894;23;20461;-92
2023/01/12 09:55:25;;;;;;;1.52;1.42;;;;;;;4.39;100.00;100602.78;5960228;23;20036;-93
2023/01/12 09:57:56;;;;;;;0.98;0.90;;;;;;;4.42;100.00;100601.22;5960951;23;20015;-92
2023/01/12 10:00:22;;;;;;;1.48;1.38;;;;;;;4.43;100.00;100595.38;5982936;23;20016;-92
2023/01/12 10:02:52;;;;;;;0.28;0.28;;;;;;;4.42;100.00;100590.25;5960736;23;20068;-92
2023/01/12 10:05:33;;;;;;;0.55;0.43;;;;;;;4.54;100.00;100596.22;5960245;23;20012;-92
2023/01/12 10:07:58;;;;;;;1.45;1.35;;;;;;;4.73;100.00;100594.38;5961116;23;20016;-92
2023/01/12 10:10:24;;;;;;;3.13;2.10;;;;;;;4.87;100.00;100588.94;5939040;23;20369;-92
2023/01/12 10:12:56;;;;;;;4.20;1.33;;;;;;;5.07;100.00;100595.72;5962366;23;20023;-91
2023/01/12 10:15:33;;;;;;;1.83;1.73;;;;;;;5.36;100.00;100597.41;5938715;23;20570;-92
2023/01/12 10:18:11;;;;;;;1.15;1.13;;;;;;;5.22;100.00;100594.59;5962502;23;20445;-91
2023/01/12 10:20:39;;;;;;;2.55;1.88;;;;;;;5.44;100.00;100596.25;5961538;23;20020;-91
2023/01/12 10:23:08;;;;;;;2.25;1.70;;;;;;;5.67;100.00;100595.13;5939436;23;20015;-93
2023/01/12 10:25:41;;;;;;;2.95;1.75;;;;;;;5.61;100.00;100594.75;5985302;23;20159;-91
2023/01/12 10:28:14;;;;;;;2.83;2.30;;;;;;;5.78;100.00;100590.44;5961902;23;20020;-92
2023/01/12 10:30:41;;;;;;;3.38;2.40;;;;;;;5.86;100.00;100583.78;5962293;23;20574;-91
2023/01/12 10:33:20;;;;;;;1.30;1.05;;;;;;;6.00;100.00;100581.06;5962361;23;20006;-93
2023/01/12 10:36:17;;;;;;;1.05;1.05;;;;;;;6.34;100.00;100584.19;5938466;23;20027;-92
2023/01/12 10:38:56;;;;;;;2.63;1.67;;;;;;;6.56;100.00;100572.75;5961991;23;20041;-92
2023/01/12 10:41:36;;;;;;;1.85;1.48;;;;;;;6.39;100.00;100584.56;5961569;23;20413;-92
2023/01/12 10:44:02;;;;;;;3.60;1.85;;;;;;;6.62;100.00;100580.63;5939223;23;20027;-92
2023/01/12 10:46:30;;;;;;;1.48;1.38;;;;;;;6.74;100.00;100578.22;5961952;23;20015;-92
2023/01/12 10:49:19;;;;;;;1.40;1.30;;;;;;;6.98;100.00;100582.09;5961591;23;20024;-91
2023/01/12 10:51:52;;;;;;;3.42;1.98;;;;;;;7.00;100.00;100576.94;5961647;23;20016;-94
2023/01/12 10:54:24;;;;;;;2.77;2.30;;;;;;;7.10;100.00;100587.16;5962203;23;20011;-92
2023/01/12 10:57:03;;;;;;;0.88;0.88;;;;;;;7.27;100.00;100567.00;5961959;23;20024;-92
2023/01/12 10:59:31;;;;;;;1.15;1.10;;;;;;;7.41;100.00;100566.91;5961383;23;20019;-93
2023/01/12 11:02:07;;;;;;;1.45;0.88;;;;;;;7.65;100.00;100562.44;5939142;23;20097;-93
2023/01/12 11:04:52;;;;;;;2.22;2.08;;;;;;;7.62;100.00;100565.22;5984813;23;20027;-93
2023/01/12 11:07:21;;;;;;;1.48;1.38;;;;;;;7.77;100.00;100574.97;5984538;23;20023;-93
2023/01/12 11:09:47;;;;;;;1.23;1.05;;;;;;;8.11;100.00;100575.91;5961905;23;20027;-92
2023/01/12 11:12:35;;;;;;;0.85;0.75;;;;;;;8.02;100.00;100567.28;5961083;23;20353;-91
2023/01/12 11:15:09;;;;;;;0.73;0.73;;;;;;;8.22;100.00;100560.03;5960849;23;20074;-93
2023/01/12 11:17:42;;;;;;;2.15;1.55;;;;;;;8.49;100.00;100551.13;5985311;23;20015;-93
2023/01/12 11:20:19;;;;;;;1.45;1.20;;;;;;;8.51;100.00;100557.03;5960649;23;20436;-94
2023/01/12 11:22:45;;;;;;;0.88;0.88;;;;;;;8.50;100.00;100558.22;5962190;23;20132;-92
2023/01/12 11:25:20;;;;;;;0.80;0.68;;;;;;;8.69;100.00;100541.03;5938482;23;20439;-92
2023/01/12 11:28:01;;;;;;;0.40;0.40;;;;;;;8.78;100.00;100536.56;5939187;23;20019;-93
2023/01/12 11:30:42;;;;;;;2.35;1.77;;;;;;;8.96;100.00;100536.38;5961249;23;20026;-93
2023/01/12 11:33:21;;;;;;;2.05;1.95;;;;;;;8.96;100.00;100530.84;5961965;23;20064;-93
2023/01/12 11:35:52;;;;;;;2.85;1.92;;;;;;;9.15;100.00;100532.97;5984321;23;20015;-93
2023/01/12 11:38:23;;;;;;;1.10;1.05;;;;;;;9.22;100.00;100532.84;5961584;23;20070;-92
2023/01/12 11:40:48;;;;;;;5.70;2.17;;;;;;;9.44;100.00;100527.81;5938534;23;20015;-92
2023/01/12 11:43:54;;;;;;;1.38;1.27;;;;;;;9.67;100.00;100532.63;5938624;23;20334;-94
2023/01/12 11:46:35;;;;;;;0.82;0.82;;;;;;;9.83;100.00;100535.53;5984853;23;20083;-93
2023/01/12 11:49:17;;;;;;;1.45;1.35;;;;;;;10.04;100.00;100526.09;5960420;23;20044;-94
2023/01/12 11:51:46;;;;;;;0.63;0.63;;;;;;;9.81;100.00;100526.88;5961381;23;20035;-93
2023/01/12 11:54:15;;;;;;;1.65;0.98;;;;;;;10.07;100.00;100526.03;5938308;23;20468;-92
2023/01/12 11:56:53;;;;;;;0.90;0.88;;;;;;;9.98;100.00;100523.03;5961580;23;20513;-92
2023/01/12 11:59:44;;;;;;;1.50;1.35;;;;;;;9.96;100.00;100524.66;5984375;23;20479;-91
2023/01/12 12:02:31;;;;;;;2.97;2.15;;;;;;;9.63;99.94;100523.56;5938240;23;20024;-92
2023/01/12 12:05:05;;;;;;;1.75;1.20;;;;;;;9.62;100.00;100516.50;5960732;23;20564;-93
2023/01/12 12:07:52;;;;;;;2.33;2.13;;;;;;;9.93;100.00;100492.25;5961356;23;20023;-92
2023/01/12 12:10:27;;;;;;;1.48;0.82;;;;;;;9.95;100.00;100493.38;5960874;23;20106;-93
2023/01/12 12:13:23;;;;;;;1.63;1.08;;;;;;;10.26;100.00;100494.84;5938746;23;20075;-91
2023/01/12 12:15:52;;;;;;;0.73;0.73;;;;;;;10.29;100.00;100496.78;5960852;23;20054;-94
2023/01/12 12:18:49;;;;;;;0.63;0.63;;;;;;;10.47;100.00;100498.44;5983707;23;20014;-93
2023/01/12 12:21:17;;;;;;;1.50;1.40;;;;;;;10.34;96.61;100487.19;6008473;23;20023;-92
2023/01/12 12:24:14;;;;;;;1.05;0.95;;;;;;;10.26;98.75;100491.28;5961367;23;20024;-93
2023/01/12 12:26:43;;;;;;;1.67;0.88;;;;;;;10.07;94.43;100486.47;5961708;23;20027;-93